sensor_id;sensor_type;location;lat;lon;timestamp;pressure;altitude;pressure_sealevel;temperature;humidity
31183;BME280;17813;0.000;0.000;2023-05-19T01:05:57;100243.78;;;9.83;70.30
31183;BME280;17813;0.000;0.000;2023-05-19T01:08:28;100241.00;;;9.86;70.31
31183;BME280;17813;0.000;0.000;2023-05-19T01:10:57;100246.22;;;9.88;70.06
31183;BME280;17813;0.000;0.000;2023-05-19T01:13:28;100239.28;;;9.85;70.17
31183;BME280;17813;0.000;0.000;2023-05-19T01:16:22;100239.72;;;9.76;70.46
31183;BME280;17813;0.000;0.000;2023-05-19T01:19:00;100237.91;;;9.77;70.71
31183;BME280;17813;0.000;0.000;2023-05-19T01:24:44;100239.31;;;9.46;72.96
31183;BME280;17813;0.000;0.000;2023-05-19T01:33:00;100244.50;;;9.29;72.90
31183;BME280;17813;0.000;0.000;2023-05-19T01:35:28;100244.09;;;9.38;72.31
31183;BME280;17813;0.000;0.000;2023-05-19T01:38:00;100248.34;;;9.42;72.31
31183;BME280;17813;0.000;0.000;2023-05-19T01:40:28;100245.47;;;9.47;72.06
31183;BME280;17813;0.000;0.000;2023-05-19T01:42:59;100234.94;;;9.45;71.76
31183;BME280;17813;0.000;0.000;2023-05-19T01:45:28;100242.91;;;9.45;71.75
31183;BME280;17813;0.000;0.000;2023-05-19T01:47:58;100245.53;;;9.45;71.62
31183;BME280;17813;0.000;0.000;2023-05-19T01:50:26;100242.84;;;9.47;71.53
31183;BME280;17813;0.000;0.000;2023-05-19T01:52:54;100242.91;;;9.45;71.79
31183;BME280;17813;0.000;0.000;2023-05-19T01:55:21;100243.75;;;9.46;71.79
31183;BME280;17813;0.000;0.000;2023-05-19T01:58:16;100240.72;;;9.34;72.08
31183;BME280;17813;0.000;0.000;2023-05-19T02:01:00;100250.28;;;9.18;72.59
31183;BME280;17813;0.000;0.000;2023-05-19T02:09:26;100245.19;;;8.93;73.98
31183;BME280;17813;0.000;0.000;2023-05-19T02:17:39;100242.22;;;9.01;74.25
31183;BME280;17813;0.000;0.000;2023-05-19T02:20:08;100234.59;;;8.93;74.88
31183;BME280;17813;0.000;0.000;2023-05-19T02:22:36;100230.09;;;8.95;74.16
31183;BME280;17813;0.000;0.000;2023-05-19T02:25:04;100228.72;;;8.87;74.92
31183;BME280;17813;0.000;0.000;2023-05-19T02:27:34;100227.84;;;8.86;74.82
31183;BME280;17813;0.000;0.000;2023-05-19T02:30:06;100226.00;;;8.88;74.80
31183;BME280;17813;0.000;0.000;2023-05-19T02:32:34;100227.31;;;8.98;74.34
31183;BME280;17813;0.000;0.000;2023-05-19T02:35:02;100232.94;;;8.91;75.54
31183;BME280;17813;0.000;0.000;2023-05-19T02:37:30;100238.38;;;8.88;75.46
31183;BME280;17813;0.000;0.000;2023-05-19T02:39:58;100241.75;;;8.91;75.05
31183;BME280;17813;0.000;0.000;2023-05-19T02:42:26;100236.19;;;8.97;74.48
31183;BME280;17813;0.000;0.000;2023-05-19T02:44:55;100233.41;;;9.00;74.54
31183;BME280;17813;0.000;0.000;2023-05-19T02:47:25;100238.03;;;8.95;75.14
31183;BME280;17813;0.000;0.000;2023-05-19T02:49:53;100224.69;;;8.98;75.33
31183;BME280;17813;0.000;0.000;2023-05-19T02:52:20;100222.09;;;8.97;75.23
31183;BME280;17813;0.000;0.000;2023-05-19T02:54:47;100226.47;;;8.98;75.44
31183;BME280;17813;0.000;0.000;2023-05-19T02:57:14;100226.00;;;8.88;75.76
31183;BME280;17813;0.000;0.000;2023-05-19T02:59:41;100225.47;;;8.80;76.11
31183;BME280;17813;0.000;0.000;2023-05-19T03:02:08;100221.78;;;8.84;75.72
31183;BME280;17813;0.000;0.000;2023-05-19T03:04:36;100225.00;;;8.91;75.08
31183;BME280;17813;0.000;0.000;2023-05-19T05:07:50;100219.59;;;14.46;63.64
31183;BME280;17813;0.000;0.000;2023-05-19T05:10:21;100220.97;;;14.78;62.60
31183;BME280;17813;0.000;0.000;2023-05-19T05:12:50;100227.66;;;15.24;61.83
31183;BME280;17813;0.000;0.000;2023-05-19T05:15:18;100228.47;;;15.64;60.12
31183;BME280;17813;0.000;0.000;2023-05-19T05:17:46;100224.16;;;15.87;58.66
31183;BME280;17813;0.000;0.000;2023-05-19T05:20:15;100236.16;;;15.81;57.62
31183;BME280;17813;0.000;0.000;2023-05-19T05:22:43;100228.88;;;15.83;57.91
31183;BME280;17813;0.000;0.000;2023-05-19T05:25:11;100227.72;;;15.74;57.25
31183;BME280;17813;0.000;0.000;2023-05-19T05:27:39;100232.22;;;15.74;57.29
31183;BME280;17813;0.000;0.000;2023-05-19T05:30:06;100224.41;;;15.71;56.67
31183;BME280;17813;0.000;0.000;2023-05-19T05:32:33;100229.91;;;15.55;55.97
31183;BME280;17813;0.000;0.000;2023-05-19T05:35:00;100226.94;;;15.60;56.55
31183;BME280;17813;0.000;0.000;2023-05-19T05:37:28;100230.78;;;15.56;55.54
31183;BME280;17813;0.000;0.000;2023-05-19T05:39:55;100234.28;;;15.56;55.46
31183;BME280;17813;0.000;0.000;2023-05-19T05:42:22;100227.47;;;15.52;54.74
31183;BME280;17813;0.000;0.000;2023-05-19T05:44:49;100226.56;;;15.66;55.10
31183;BME280;17813;0.000;0.000;2023-05-19T05:47:18;100226.84;;;15.87;54.52
31183;BME280;17813;0.000;0.000;2023-05-19T05:49:46;100224.22;;;16.11;53.96
31183;BME280;17813;0.000;0.000;2023-05-19T05:52:15;100225.19;;;16.57;52.98
31183;BME280;17813;0.000;0.000;2023-05-19T05:54:44;100218.66;;;17.31;51.93
31183;BME280;17813;0.000;0.000;2023-05-19T05:57:12;100219.53;;;18.10;49.67
31183;BME280;17813;0.000;0.000;2023-05-19T05:59:39;100216.03;;;18.53;47.54
31183;BME280;17813;0.000;0.000;2023-05-19T06:02:06;100204.59;;;19.04;47.11
31183;BME280;17813;0.000;0.000;2023-05-19T06:04:33;100205.38;;;19.15;46.80
31183;BME280;17813;0.000;0.000;2023-05-19T08:07:24;100172.69;;;21.74;33.40
31183;BME280;17813;0.000;0.000;2023-05-19T08:09:52;100180.09;;;21.72;34.28
31183;BME280;17813;0.000;0.000;2023-05-19T08:12:19;100172.75;;;21.64;34.24
31183;BME280;17813;0.000;0.000;2023-05-19T08:14:50;100178.91;;;21.84;34.94
31183;BME280;17813;0.000;0.000;2023-05-19T08:17:18;100178.19;;;21.82;34.51
31183;BME280;17813;0.000;0.000;2023-05-19T08:19:45;100186.44;;;21.53;35.91
31183;BME280;17813;0.000;0.000;2023-05-19T08:22:13;100184.84;;;21.88;35.93
31183;BME280;17813;0.000;0.000;2023-05-19T08:24:41;100181.22;;;22.06;34.02
31183;BME280;17813;0.000;0.000;2023-05-19T08:27:10;100175.28;;;21.66;35.96
31183;BME280;17813;0.000;0.000;2023-05-19T08:29:37;100181.72;;;21.55;35.74
31183;BME280;17813;0.000;0.000;2023-05-19T08:32:04;100173.13;;;21.42;35.33
31183;BME280;17813;0.000;0.000;2023-05-19T08:34:31;100174.72;;;21.15;35.30
31183;BME280;17813;0.000;0.000;2023-05-19T08:37:01;100169.75;;;21.11;35.23
31183;BME280;17813;0.000;0.000;2023-05-19T08:39:29;100167.75;;;21.32;34.97
31183;BME280;17813;0.000;0.000;2023-05-19T08:41:56;100168.66;;;21.60;35.42
31183;BME280;17813;0.000;0.000;2023-05-19T08:44:23;100166.97;;;21.87;34.29
31183;BME280;17813;0.000;0.000;2023-05-19T08:46:54;100161.03;;;22.10;33.67
31183;BME280;17813;0.000;0.000;2023-05-19T08:49:25;100155.25;;;22.41;32.91
31183;BME280;17813;0.000;0.000;2023-05-19T08:55:03;100153.31;;;22.51;33.99
31183;BME280;17813;0.000;0.000;2023-05-19T08:57:36;100150.69;;;22.59;32.41
31183;BME280;17813;0.000;0.000;2023-05-19T09:00:05;100141.25;;;22.99;32.48
31183;BME280;17813;0.000;0.000;2023-05-19T09:02:38;100147.88;;;23.04;32.80
31183;BME280;17813;0.000;0.000;2023-05-19T09:05:06;100141.94;;;23.87;31.88
31183;BME280;17813;0.000;0.000;2023-05-19T09:07:36;100128.06;;;24.97;29.64
31183;BME280;17813;0.000;0.000;2023-05-19T09:10:03;100126.22;;;25.61;29.51
31183;BME280;17813;0.000;0.000;2023-05-19T09:12:33;100115.25;;;25.38;28.16
31183;BME280;17813;0.000;0.000;2023-05-19T09:15:00;100119.25;;;25.58;28.08
31183;BME280;17813;0.000;0.000;2023-05-19T09:17:29;100117.56;;;25.57;29.94
31183;BME280;17813;0.000;0.000;2023-05-19T09:19:58;100121.13;;;26.05;28.73
31183;BME280;17813;0.000;0.000;2023-05-19T09:22:27;100113.16;;;25.56;28.34
31183;BME280;17813;0.000;0.000;2023-05-19T09:24:57;100119.06;;;25.76;28.42
31183;BME280;17813;0.000;0.000;2023-05-19T09:27:24;100126.91;;;25.55;27.99
31183;BME280;17813;0.000;0.000;2023-05-19T09:29:51;100126.38;;;25.04;28.19
31183;BME280;17813;0.000;0.000;2023-05-19T09:32:24;100119.41;;;24.93;29.72
31183;BME280;17813;0.000;0.000;2023-05-19T09:34:53;100115.69;;;25.58;28.41
31183;BME280;17813;0.000;0.000;2023-05-19T09:37:24;100115.81;;;25.81;28.44
31183;BME280;17813;0.000;0.000;2023-05-19T09:39:55;100111.13;;;25.67;28.92
31183;BME280;17813;0.000;0.000;2023-05-19T09:42:26;100109.56;;;24.92;29.63
31183;BME280;17813;0.000;0.000;2023-05-19T09:45:00;100100.25;;;24.38;29.90
31183;BME280;17813;0.000;0.000;2023-05-19T09:47:36;100107.25;;;25.45;28.37
31183;BME280;17813;0.000;0.000;2023-05-19T09:50:07;100094.63;;;25.13;27.93
31183;BME280;17813;0.000;0.000;2023-05-19T09:52:55;100098.16;;;25.77;26.56
31183;BME280;17813;0.000;0.000;2023-05-19T09:55:29;100091.88;;;26.38;26.00
31183;BME280;17813;0.000;0.000;2023-05-19T09:58:00;100102.53;;;27.23;25.30
31183;BME280;17813;0.000;0.000;2023-05-19T10:00:31;100087.31;;;27.29;23.91
31183;BME280;17813;0.000;0.000;2023-05-19T10:03:02;100097.94;;;26.17;25.71
31183;BME280;17813;0.000;0.000;2023-05-19T10:05:30;100097.59;;;25.89;26.55
31183;BME280;17813;0.000;0.000;2023-05-19T11:09:53;100073.97;;;22.17;35.02
31183;BME280;17813;0.000;0.000;2023-05-19T11:12:21;100069.03;;;22.30;34.17
31183;BME280;17813;0.000;0.000;2023-05-19T11:14:52;100068.09;;;22.21;34.65
31183;BME280;17813;0.000;0.000;2023-05-19T11:17:20;100064.75;;;21.92;33.89
31183;BME280;17813;0.000;0.000;2023-05-19T11:19:56;100062.88;;;21.92;34.09
31183;BME280;17813;0.000;0.000;2023-05-19T11:22:26;100058.84;;;22.06;34.90
31183;BME280;17813;0.000;0.000;2023-05-19T11:24:55;100059.72;;;21.97;34.30
31183;BME280;17813;0.000;0.000;2023-05-19T11:27:28;100053.69;;;21.85;35.13
31183;BME280;17813;0.000;0.000;2023-05-19T11:30:00;100041.38;;;22.00;35.31
31183;BME280;17813;0.000;0.000;2023-05-19T11:32:29;100051.97;;;22.11;34.44
31183;BME280;17813;0.000;0.000;2023-05-19T11:34:57;100048.09;;;22.14;34.96
31183;BME280;17813;0.000;0.000;2023-05-19T11:37:52;100041.16;;;22.29;34.39
31183;BME280;17813;0.000;0.000;2023-05-19T11:41:05;100036.81;;;22.80;34.39
31183;BME280;17813;0.000;0.000;2023-05-19T11:43:34;100032.16;;;22.90;33.61
31183;BME280;17813;0.000;0.000;2023-05-19T11:46:04;100034.31;;;22.87;32.33
31183;BME280;17813;0.000;0.000;2023-05-19T11:48:31;100036.31;;;22.59;31.83
31183;BME280;17813;0.000;0.000;2023-05-19T11:50:59;100034.28;;;22.35;31.88
31183;BME280;17813;0.000;0.000;2023-05-19T11:53:26;100029.97;;;22.06;33.80
31183;BME280;17813;0.000;0.000;2023-05-19T11:56:02;100035.25;;;21.63;33.48
31183;BME280;17813;0.000;0.000;2023-05-19T11:58:33;100031.28;;;21.57;33.28
31183;BME280;17813;0.000;0.000;2023-05-19T12:01:04;100025.06;;;21.74;34.06
31183;BME280;17813;0.000;0.000;2023-05-19T12:03:35;100027.13;;;22.08;33.88
31183;BME280;17813;0.000;0.000;2023-05-19T12:06:03;100016.28;;;22.26;33.53
31183;BME280;17813;0.000;0.000;2023-05-19T12:08:33;100014.28;;;22.28;34.81
31183;BME280;17813;0.000;0.000;2023-05-19T12:11:00;100024.47;;;21.98;34.75
31183;BME280;17813;0.000;0.000;2023-05-19T12:13:28;100017.53;;;21.96;35.13
31183;BME280;17813;0.000;0.000;2023-05-19T12:16:02;100018.13;;;21.90;33.09
31183;BME280;17813;0.000;0.000;2023-05-19T12:18:35;100015.44;;;22.25;32.93
31183;BME280;17813;0.000;0.000;2023-05-19T12:21:04;100015.22;;;22.19;32.17
31183;BME280;17813;0.000;0.000;2023-05-19T12:23:32;100010.03;;;22.25;33.72
31183;BME280;17813;0.000;0.000;2023-05-19T12:25:59;100010.75;;;22.53;32.70
31183;BME280;17813;0.000;0.000;2023-05-19T12:28:31;100006.25;;;22.62;32.20
31183;BME280;17813;0.000;0.000;2023-05-19T12:30:58;100008.22;;;22.52;31.15
31183;BME280;17813;0.000;0.000;2023-05-19T12:33:27;99993.69;;;21.73;31.22
31183;BME280;17813;0.000;0.000;2023-05-19T12:36:00;100000.88;;;21.37;32.48
31183;BME280;17813;0.000;0.000;2023-05-19T12:38:55;100004.19;;;21.22;33.07
31183;BME280;17813;0.000;0.000;2023-05-19T12:41:24;100002.81;;;21.45;33.23
31183;BME280;17813;0.000;0.000;2023-05-19T12:44:15;99995.44;;;21.65;33.04
31183;BME280;17813;0.000;0.000;2023-05-19T12:46:43;100002.13;;;22.06;33.42
31183;BME280;17813;0.000;0.000;2023-05-19T12:49:10;100000.69;;;22.02;31.09
31183;BME280;17813;0.000;0.000;2023-05-19T12:51:38;100000.50;;;22.13;31.35
31183;BME280;17813;0.000;0.000;2023-05-19T12:54:06;99994.28;;;22.38;30.99
31183;BME280;17813;0.000;0.000;2023-05-19T12:56:33;99982.31;;;22.67;31.97
31183;BME280;17813;0.000;0.000;2023-05-19T12:59:00;99980.38;;;22.33;29.99
31183;BME280;17813;0.000;0.000;2023-05-19T13:01:29;99988.50;;;22.33;31.77
31183;BME280;17813;0.000;0.000;2023-05-19T13:03:56;99979.88;;;22.56;31.98
31183;BME280;17813;0.000;0.000;2023-05-19T13:06:23;99984.09;;;22.58;31.46
31183;BME280;17813;0.000;0.000;2023-05-19T13:08:50;99988.59;;;22.24;31.18
31183;BME280;17813;0.000;0.000;2023-05-19T13:11:17;99978.16;;;21.93;31.91
31183;BME280;17813;0.000;0.000;2023-05-19T13:13:45;99977.47;;;21.91;32.51
31183;BME280;17813;0.000;0.000;2023-05-19T13:16:12;99982.25;;;21.97;32.59
31183;BME280;17813;0.000;0.000;2023-05-19T13:18:39;99981.25;;;22.16;33.17
31183;BME280;17813;0.000;0.000;2023-05-19T13:21:06;99976.47;;;22.28;32.09
31183;BME280;17813;0.000;0.000;2023-05-19T13:23:34;99969.53;;;22.07;33.14
31183;BME280;17813;0.000;0.000;2023-05-19T13:26:02;99965.91;;;21.99;33.21
31183;BME280;17813;0.000;0.000;2023-05-19T13:28:30;99965.06;;;22.16;32.96
31183;BME280;17813;0.000;0.000;2023-05-19T13:30:57;99971.25;;;22.08;33.43
31183;BME280;17813;0.000;0.000;2023-05-19T13:33:24;99976.97;;;22.05;33.50
31183;BME280;17813;0.000;0.000;2023-05-19T13:35:51;99980.25;;;21.99;33.47
31183;BME280;17813;0.000;0.000;2023-05-19T13:38:19;99971.16;;;21.82;33.57
31183;BME280;17813;0.000;0.000;2023-05-19T13:40:46;99982.25;;;21.62;33.68
31183;BME280;17813;0.000;0.000;2023-05-19T13:43:12;99973.91;;;21.55;33.59
31183;BME280;17813;0.000;0.000;2023-05-19T13:45:39;99968.38;;;21.74;33.63
31183;BME280;17813;0.000;0.000;2023-05-19T13:48:08;99966.44;;;21.85;34.01
31183;BME280;17813;0.000;0.000;2023-05-19T13:50:36;99970.38;;;21.72;34.17
31183;BME280;17813;0.000;0.000;2023-05-19T13:53:03;99964.38;;;21.78;33.66
31183;BME280;17813;0.000;0.000;2023-05-19T13:55:30;99952.78;;;21.68;34.11
31183;BME280;17813;0.000;0.000;2023-05-19T13:57:59;99966.97;;;21.53;34.32
31183;BME280;17813;0.000;0.000;2023-05-19T14:00:26;99964.28;;;21.53;34.43
31183;BME280;17813;0.000;0.000;2023-05-19T14:02:54;99972.81;;;21.30;34.37
31183;BME280;17813;0.000;0.000;2023-05-19T14:05:22;99970.19;;;21.38;34.17
31183;BME280;17813;0.000;0.000;2023-05-19T14:07:53;99969.59;;;21.44;34.16
31183;BME280;17813;0.000;0.000;2023-05-19T15:08:54;99960.97;;;19.81;39.79
31183;BME280;17813;0.000;0.000;2023-05-19T15:11:21;99960.97;;;19.72;40.28
31183;BME280;17813;0.000;0.000;2023-05-19T15:13:49;99970.47;;;19.85;39.88
31183;BME280;17813;0.000;0.000;2023-05-19T15:16:15;99965.50;;;19.81;40.17
31183;BME280;17813;0.000;0.000;2023-05-19T15:18:43;99969.03;;;19.72;40.66
31183;BME280;17813;0.000;0.000;2023-05-19T15:21:11;99966.22;;;19.83;40.59
31183;BME280;17813;0.000;0.000;2023-05-19T15:23:42;99964.34;;;20.03;40.32
31183;BME280;17813;0.000;0.000;2023-05-19T15:26:09;99968.19;;;20.10;40.36
31183;BME280;17813;0.000;0.000;2023-05-19T15:28:37;99975.22;;;20.30;39.96
31183;BME280;17813;0.000;0.000;2023-05-19T15:31:04;99964.59;;;20.29;40.14
31183;BME280;17813;0.000;0.000;2023-05-19T15:33:32;99965.31;;;20.40;39.37
31183;BME280;17813;0.000;0.000;2023-05-19T15:35:59;99969.84;;;20.49;39.55
31183;BME280;17813;0.000;0.000;2023-05-19T15:38:27;99966.25;;;20.59;39.97
31183;BME280;17813;0.000;0.000;2023-05-19T15:40:54;99970.03;;;20.75;39.38
31183;BME280;17813;0.000;0.000;2023-05-19T15:43:21;99960.94;;;20.76;39.30
31183;BME280;17813;0.000;0.000;2023-05-19T15:45:48;99959.75;;;20.51;39.28
31183;BME280;17813;0.000;0.000;2023-05-19T15:48:17;99965.03;;;20.43;39.61
31183;BME280;17813;0.000;0.000;2023-05-19T15:50:45;99968.44;;;20.45;39.46
31183;BME280;17813;0.000;0.000;2023-05-19T15:53:14;99953.28;;;20.25;40.02
31183;BME280;17813;0.000;0.000;2023-05-19T15:55:43;99953.69;;;20.40;39.87
31183;BME280;17813;0.000;0.000;2023-05-19T15:58:10;99957.78;;;20.44;39.78
31183;BME280;17813;0.000;0.000;2023-05-19T16:00:37;99955.66;;;20.38;40.25
31183;BME280;17813;0.000;0.000;2023-05-19T16:03:04;99951.13;;;20.38;40.18
31183;BME280;17813;0.000;0.000;2023-05-19T16:05:31;99956.69;;;20.08;40.99
31183;BME280;17813;0.000;0.000;2023-05-19T16:07:58;99957.69;;;20.16;40.32
31183;BME280;17813;0.000;0.000;2023-05-19T17:09:09;99967.03;;;18.95;44.23
31183;BME280;17813;0.000;0.000;2023-05-19T17:11:42;99963.72;;;18.82;44.46
31183;BME280;17813;0.000;0.000;2023-05-19T17:14:14;99965.16;;;18.86;44.37
31183;BME280;17813;0.000;0.000;2023-05-19T17:16:41;99955.41;;;18.94;44.35
31183;BME280;17813;0.000;0.000;2023-05-19T17:19:08;99961.09;;;19.01;44.27
31183;BME280;17813;0.000;0.000;2023-05-19T17:21:36;99969.97;;;18.92;44.67
31183;BME280;17813;0.000;0.000;2023-05-19T17:24:05;99969.91;;;18.73;44.75
31183;BME280;17813;0.000;0.000;2023-05-19T17:26:32;99967.53;;;18.58;44.96
31183;BME280;17813;0.000;0.000;2023-05-19T17:29:00;99965.34;;;18.43;45.45
31183;BME280;17813;0.000;0.000;2023-05-19T17:31:27;99963.75;;;18.40;45.96
31183;BME280;17813;0.000;0.000;2023-05-19T17:33:55;99972.66;;;18.41;45.81
31183;BME280;17813;0.000;0.000;2023-05-19T17:36:23;99978.78;;;18.22;46.25
31183;BME280;17813;0.000;0.000;2023-05-19T17:38:50;99980.47;;;18.23;46.28
31183;BME280;17813;0.000;0.000;2023-05-19T17:41:17;99986.59;;;18.14;46.65
31183;BME280;17813;0.000;0.000;2023-05-19T17:43:44;99979.78;;;18.10;46.71
31183;BME280;17813;0.000;0.000;2023-05-19T17:46:11;99988.34;;;18.04;46.80
31183;BME280;17813;0.000;0.000;2023-05-19T17:48:38;99988.03;;;17.97;47.41
31183;BME280;17813;0.000;0.000;2023-05-19T17:51:06;99985.72;;;17.92;47.27
31183;BME280;17813;0.000;0.000;2023-05-19T17:53:34;99984.53;;;17.85;47.60
31183;BME280;17813;0.000;0.000;2023-05-19T17:56:05;99985.53;;;17.84;47.43
31183;BME280;17813;0.000;0.000;2023-05-19T17:58:38;99983.69;;;17.85;47.47
31183;BME280;17813;0.000;0.000;2023-05-19T18:01:07;99978.56;;;17.82;47.18
31183;BME280;17813;0.000;0.000;2023-05-19T18:03:34;99973.34;;;17.80;47.32
31183;BME280;17813;0.000;0.000;2023-05-19T18:06:01;99987.72;;;17.79;47.41
31183;BME280;17813;0.000;0.000;2023-05-19T18:08:30;99984.00;;;17.59;47.87
31183;BME280;17813;0.000;0.000;2023-05-19T20:12:42;100025.19;;;14.78;59.68
31183;BME280;17813;0.000;0.000;2023-05-19T20:15:10;100025.09;;;14.79;59.56
31183;BME280;17813;0.000;0.000;2023-05-19T20:17:37;100036.41;;;14.96;59.12
31183;BME280;17813;0.000;0.000;2023-05-19T20:20:05;100031.38;;;14.91;59.38
31183;BME280;17813;0.000;0.000;2023-05-19T20:22:36;100031.16;;;14.94;59.17
31183;BME280;17813;0.000;0.000;2023-05-19T20:25:04;100029.78;;;14.89;59.55
31183;BME280;17813;0.000;0.000;2023-05-19T20:27:31;100024.13;;;14.93;59.42
31183;BME280;17813;0.000;0.000;2023-05-19T20:29:59;100022.84;;;14.86;59.83
31183;BME280;17813;0.000;0.000;2023-05-19T20:32:26;100026.25;;;14.88;59.64
31183;BME280;17813;0.000;0.000;2023-05-19T20:34:52;100028.28;;;14.85;59.78
31183;BME280;17813;0.000;0.000;2023-05-19T20:37:19;100028.06;;;14.88;59.73
31183;BME280;17813;0.000;0.000;2023-05-19T20:39:48;100034.38;;;14.99;59.21
31183;BME280;17813;0.000;0.000;2023-05-19T20:42:14;100023.69;;;14.87;59.83
31183;BME280;17813;0.000;0.000;2023-05-19T20:44:41;100025.09;;;14.92;59.60
31183;BME280;17813;0.000;0.000;2023-05-19T20:47:08;100027.22;;;14.87;60.07
31183;BME280;17813;0.000;0.000;2023-05-19T20:49:35;100029.47;;;14.80;60.06
31183;BME280;17813;0.000;0.000;2023-05-19T20:52:02;100027.03;;;14.77;60.08
31183;BME280;17813;0.000;0.000;2023-05-19T20:54:29;100025.19;;;14.78;60.25
31183;BME280;17813;0.000;0.000;2023-05-19T20:56:56;100028.72;;;14.78;60.28
31183;BME280;17813;0.000;0.000;2023-05-19T20:59:23;100028.09;;;14.75;60.27
31183;BME280;17813;0.000;0.000;2023-05-19T21:01:50;100022.31;;;14.68;60.75
31183;BME280;17813;0.000;0.000;2023-05-19T21:04:17;100034.50;;;14.72;60.38
31183;BME280;17813;0.000;0.000;2023-05-19T21:06:44;100031.19;;;14.69;60.26
31183;BME280;17813;0.000;0.000;2023-05-19T21:09:11;100027.78;;;14.67;60.50
